createdAt,value
2019-04-27T00:00:46.180Z,2.50
2019-04-27T00:03:16.595Z,3.17
2019-04-27T00:05:49.482Z,2.72
2019-04-27T00:08:28.457Z,2.27
2019-04-27T00:10:59.903Z,2.83
2019-04-27T00:13:27.610Z,2.65
2019-04-27T00:16:05.609Z,2.55
2019-04-27T00:18:38.806Z,2.37
2019-04-27T00:21:09.357Z,3.27
2019-04-27T00:23:38.126Z,2.95
2019-04-27T00:26:07.044Z,3.30
2019-04-27T00:28:35.601Z,2.72
2019-04-27T00:31:05.814Z,2.53
2019-04-27T00:33:35.007Z,2.67
2019-04-27T00:36:08.714Z,2.40
2019-04-27T00:38:43.498Z,2.42
2019-04-27T00:41:14.306Z,2.92
2019-04-27T00:43:44.548Z,1.87
2019-04-27T00:46:13.863Z,1.70
2019-04-27T00:48:43.382Z,2.40
2019-04-27T00:51:14.274Z,2.42
2019-04-27T00:53:43.569Z,2.20
2019-04-27T00:56:25.309Z,2.97
2019-04-27T00:59:13.789Z,3.12
2019-04-27T01:01:56.307Z,2.90
2019-04-27T01:04:34.004Z,2.67
2019-04-27T01:07:03.686Z,3.25
2019-04-27T01:09:33.873Z,3.60
2019-04-27T01:12:03.583Z,3.45
2019-04-27T01:14:34.149Z,4.20
2019-04-27T01:17:02.545Z,3.60
2019-04-27T01:19:39.251Z,5.05
2019-04-27T01:22:08.715Z,4.95
2019-04-27T01:24:39.113Z,4.77
2019-04-27T01:27:15.489Z,5.30
2019-04-27T01:29:44.380Z,4.87
2019-04-27T01:32:14.494Z,4.80
2019-04-27T01:34:43.482Z,4.87
2019-04-27T01:37:12.067Z,5.20
2019-04-27T01:39:40.655Z,5.50
2019-04-27T01:42:10.588Z,5.40
2019-04-27T01:44:40.375Z,4.58
2019-04-27T01:47:10.156Z,5.70
2019-04-27T01:49:39.695Z,5.05
2019-04-27T01:52:09.631Z,5.47
2019-04-27T01:54:40.841Z,5.80
2019-04-27T01:57:10.222Z,6.10
2019-04-27T01:59:39.568Z,5.75
2019-04-27T02:02:15.406Z,5.50
2019-04-27T02:04:49.405Z,5.78
2019-04-27T02:07:20.046Z,5.47
2019-04-27T02:09:49.243Z,4.87
2019-04-27T02:12:19.263Z,6.83
2019-04-27T02:14:49.073Z,5.78
2019-04-27T02:17:18.762Z,5.67
2019-04-27T02:19:49.274Z,5.85
2019-04-27T02:22:18.705Z,6.12
2019-04-27T02:24:49.108Z,5.20
2019-04-27T02:27:19.574Z,6.07
2019-04-27T02:29:50.509Z,6.05
2019-04-27T02:32:26.568Z,5.83
2019-04-27T02:35:02.717Z,6.07
2019-04-27T02:37:31.603Z,6.85
2019-04-27T02:40:00.612Z,6.67
2019-04-27T02:42:32.468Z,6.95
2019-04-27T02:45:01.954Z,5.72
2019-04-27T02:47:30.536Z,6.28
2019-04-27T02:50:00.682Z,7.23
2019-04-27T02:52:31.595Z,7.60
2019-04-27T02:55:00.476Z,6.60
2019-04-27T02:57:30.224Z,7.00
2019-04-27T03:00:00.031Z,8.30
2019-04-27T03:02:30.432Z,6.12
2019-04-27T03:05:00.785Z,6.00
2019-04-27T03:07:30.443Z,5.08
2019-04-27T03:10:02.074Z,5.35
2019-04-27T03:12:31.402Z,5.00
2019-04-27T03:15:20.518Z,4.60
2019-04-27T03:17:49.874Z,4.42
2019-04-27T03:20:23.263Z,4.10
2019-04-27T03:22:56.455Z,3.90
2019-04-27T03:25:33.055Z,4.80
2019-04-27T03:28:03.459Z,4.78
2019-04-27T03:30:35.839Z,5.62
2019-04-27T03:33:03.736Z,5.80
2019-04-27T03:35:36.723Z,5.03
2019-04-27T03:38:03.308Z,4.08
2019-04-27T03:40:31.899Z,4.78
2019-04-27T03:43:02.327Z,3.87
2019-04-27T03:45:32.434Z,4.40
2019-04-27T03:48:01.541Z,4.43
2019-04-27T03:50:31.648Z,4.50
2019-04-27T03:53:10.136Z,4.05
2019-04-27T03:55:45.496Z,4.23
2019-04-27T03:58:30.776Z,3.60
2019-04-27T04:01:00.055Z,3.30
2019-04-27T04:03:29.774Z,4.42
2019-04-27T04:06:00.220Z,4.20
2019-04-27T04:08:30.782Z,3.73
2019-04-27T04:11:01.266Z,4.12
2019-04-27T04:13:31.684Z,3.70
2019-04-27T04:16:20.542Z,4.00
2019-04-27T04:18:55.992Z,4.35
2019-04-27T04:21:24.772Z,4.53
2019-04-27T04:23:53.763Z,3.60
2019-04-27T04:26:22.653Z,5.30
2019-04-27T04:28:52.079Z,4.15
2019-04-27T04:31:21.259Z,3.92
2019-04-27T04:33:53.542Z,4.30
2019-04-27T04:36:22.841Z,3.20
2019-04-27T04:38:52.771Z,3.40
2019-04-27T04:41:32.397Z,4.10
2019-04-27T04:44:20.291Z,2.95
2019-04-27T04:46:52.515Z,2.47
2019-04-27T04:49:21.294Z,2.20
2019-04-27T04:51:50.586Z,2.62
2019-04-27T04:54:24.415Z,2.30
2019-04-27T04:56:52.603Z,2.35
2019-04-27T04:59:22.576Z,2.30
2019-04-27T05:01:51.298Z,2.17
2019-04-27T05:04:21.480Z,2.45
2019-04-27T05:06:52.054Z,2.67
2019-04-27T05:09:22.534Z,2.40
2019-04-27T05:11:52.556Z,2.60
2019-04-27T05:14:21.753Z,2.90
2019-04-27T05:16:53.330Z,2.67
2019-04-27T05:19:23.827Z,2.93
2019-04-27T05:21:52.410Z,2.02
2019-04-27T05:24:23.448Z,2.93
2019-04-27T05:26:52.850Z,2.00
2019-04-27T05:29:22.472Z,2.37
2019-04-27T05:31:54.008Z,2.35
2019-04-27T05:34:24.047Z,2.50
2019-04-27T05:36:53.441Z,2.50
2019-04-27T05:39:25.143Z,2.42
2019-04-27T05:41:53.761Z,2.70
2019-04-27T05:44:39.653Z,3.13
2019-04-27T05:47:11.742Z,2.42
2019-04-27T05:49:44.289Z,2.37
2019-04-27T05:52:30.155Z,2.20
2019-04-27T05:54:59.372Z,1.95
2019-04-27T05:57:30.847Z,2.92
2019-04-27T06:00:02.165Z,3.10
2019-04-27T06:02:30.502Z,3.43
2019-04-27T06:04:59.989Z,2.98
2019-04-27T06:07:29.886Z,3.85
2019-04-27T06:09:59.851Z,2.95
2019-04-27T06:12:29.612Z,3.50
2019-04-27T06:15:00.284Z,2.93
2019-04-27T06:17:30.138Z,4.20
2019-04-27T06:19:59.500Z,3.42
2019-04-27T06:22:33.084Z,3.85
2019-04-27T06:25:06.402Z,4.22
2019-04-27T06:27:35.390Z,4.03
2019-04-27T06:30:07.066Z,3.40
2019-04-27T06:32:36.158Z,3.97
2019-04-27T06:35:09.150Z,4.06
2019-04-27T06:37:39.020Z,4.12
2019-04-27T06:40:09.786Z,3.80
2019-04-27T06:42:39.945Z,3.87
2019-04-27T06:45:09.927Z,3.33
2019-04-27T06:47:41.438Z,3.70
2019-04-27T06:50:10.704Z,3.30
2019-04-27T06:52:40.681Z,4.13
2019-04-27T06:55:09.566Z,4.10
2019-04-27T06:57:39.124Z,3.72
2019-04-27T07:00:09.122Z,3.42
2019-04-27T07:02:39.215Z,3.27
2019-04-27T07:05:09.002Z,3.37
2019-04-27T07:07:39.493Z,3.90
2019-04-27T07:10:09.975Z,3.52
2019-04-27T07:12:41.127Z,2.60
2019-04-27T07:15:12.313Z,2.18
2019-04-27T07:17:44.896Z,2.00
2019-04-27T07:20:14.623Z,2.80
2019-04-27T07:22:44.380Z,2.65
2019-04-27T07:25:14.024Z,2.40
2019-04-27T07:27:43.333Z,2.52
2019-04-27T07:30:42.063Z,2.60
2019-04-27T07:33:22.128Z,2.72
2019-04-27T07:35:59.622Z,2.60
2019-04-27T07:38:59.526Z,2.33
2019-04-27T07:41:35.856Z,2.73
2019-04-27T07:44:16.471Z,2.42
2019-04-27T07:47:21.818Z,2.15
2019-04-27T07:50:09.661Z,2.27
2019-04-27T07:52:58.971Z,3.67
2019-04-27T07:55:32.102Z,3.08
2019-04-27T07:58:20.579Z,2.40
2019-04-27T08:00:51.079Z,3.45
2019-04-27T08:03:23.619Z,2.37
2019-04-27T08:05:52.187Z,2.60
2019-04-27T08:08:22.502Z,3.73
2019-04-27T08:10:51.084Z,3.37
2019-04-27T08:13:19.968Z,3.58
2019-04-27T08:15:49.607Z,3.65
2019-04-27T08:18:19.721Z,4.40
2019-04-27T08:20:49.083Z,4.80
2019-04-27T08:23:27.236Z,3.33
2019-04-27T08:25:56.090Z,4.70
2019-04-27T08:28:45.074Z,3.27
2019-04-27T08:31:21.320Z,4.03
2019-04-27T08:33:50.740Z,4.60
2019-04-27T08:36:19.914Z,4.20
2019-04-27T08:38:49.441Z,4.47
2019-04-27T08:41:19.668Z,3.95
2019-04-27T08:43:52.625Z,4.37
2019-04-27T08:46:21.414Z,3.70
2019-04-27T08:48:49.990Z,4.12
2019-04-27T08:51:20.136Z,4.42
2019-04-27T08:53:50.132Z,3.80
2019-04-27T08:56:19.956Z,3.85
2019-04-27T08:58:49.669Z,4.22
2019-04-27T09:01:20.604Z,3.73
2019-04-27T09:03:49.501Z,3.87
2019-04-27T09:06:19.018Z,3.40
2019-04-27T09:08:53.418Z,3.60
2019-04-27T09:11:23.977Z,3.70
2019-04-27T09:14:03.764Z,3.33
2019-04-27T09:16:38.972Z,2.90
2019-04-27T09:19:09.145Z,3.30
2019-04-27T09:21:56.066Z,3.13
2019-04-27T09:24:25.027Z,4.05
2019-04-27T09:26:54.129Z,4.80
2019-04-27T09:29:22.746Z,2.40
2019-04-27T09:31:51.288Z,3.58
2019-04-27T09:34:20.346Z,2.93
2019-04-27T09:36:53.355Z,3.50
2019-04-27T09:39:22.077Z,3.13
2019-04-27T09:41:51.460Z,4.25
2019-04-27T09:44:20.988Z,3.77
2019-04-27T09:46:49.843Z,3.03
2019-04-27T09:49:18.809Z,3.05
2019-04-27T09:51:48.035Z,1.82
2019-04-27T09:54:17.023Z,1.45
2019-04-27T09:56:46.718Z,1.23
2019-04-27T09:59:17.835Z,1.47
2019-04-27T10:01:50.589Z,1.90
2019-04-27T10:04:22.863Z,2.20
2019-04-27T10:06:51.769Z,2.08
2019-04-27T10:09:22.143Z,2.60
2019-04-27T10:11:51.022Z,2.13
2019-04-27T10:14:20.350Z,3.17
2019-04-27T10:16:49.133Z,3.37
2019-04-27T10:19:28.283Z,3.35
2019-04-27T10:21:48.634Z,3.90
2019-04-27T10:24:19.692Z,1.87
2019-04-27T10:26:48.871Z,2.40
2019-04-27T10:29:17.454Z,3.45
2019-04-27T10:31:48.305Z,4.25
2019-04-27T10:34:17.382Z,3.05
2019-04-27T10:36:47.929Z,2.57
2019-04-27T10:39:19.993Z,2.77
2019-04-27T10:41:49.063Z,2.52
2019-04-27T10:44:17.650Z,3.73
2019-04-27T10:46:46.418Z,4.97
2019-04-27T10:49:15.930Z,5.03
2019-04-27T10:51:45.685Z,4.58
2019-04-27T10:54:15.150Z,4.42
2019-04-27T10:56:43.736Z,6.15
2019-04-27T10:59:12.313Z,5.40
2019-04-27T11:01:41.570Z,4.67
2019-04-27T11:04:22.179Z,4.58
2019-04-27T11:06:52.290Z,4.53
2019-04-27T11:09:22.922Z,4.33
2019-04-27T11:11:51.504Z,4.33
2019-04-27T11:14:20.597Z,4.10
2019-04-27T11:16:49.384Z,3.93
2019-04-27T11:19:18.169Z,4.78
2019-04-27T11:21:47.369Z,4.80
2019-04-27T11:24:16.050Z,4.80
2019-04-27T11:26:46.701Z,5.15
2019-04-27T11:29:20.011Z,3.98
2019-04-27T11:31:50.594Z,4.87
2019-04-27T11:34:21.417Z,4.90
2019-04-27T11:36:55.454Z,3.47
2019-04-27T11:39:35.961Z,4.70
2019-04-27T11:42:07.362Z,4.05
2019-04-27T11:44:38.870Z,3.30
2019-04-27T11:47:09.337Z,3.78
2019-04-27T11:49:37.914Z,3.60
2019-04-27T11:52:06.506Z,4.20
2019-04-27T11:54:36.204Z,4.07
2019-04-27T11:57:06.251Z,4.13
2019-04-27T11:59:35.248Z,4.30
2019-04-27T12:02:05.279Z,3.50
2019-04-27T12:04:36.357Z,4.55
2019-04-27T12:07:06.582Z,4.02
2019-04-27T12:09:36.922Z,3.60
2019-04-27T12:12:13.532Z,3.00
2019-04-27T12:14:37.792Z,3.27
2019-04-27T12:17:08.044Z,3.60
2019-04-27T12:19:36.983Z,3.70
2019-04-27T12:22:09.827Z,3.30
2019-04-27T12:24:38.650Z,2.90
2019-04-27T12:27:09.100Z,3.63
2019-04-27T12:29:48.509Z,3.67
2019-04-27T12:32:17.811Z,3.67
2019-04-27T12:34:48.343Z,2.55
2019-04-27T12:37:16.926Z,3.43
2019-04-27T12:39:45.498Z,3.33
2019-04-27T12:42:16.130Z,3.15
2019-04-27T12:44:45.245Z,3.70
2019-04-27T12:47:16.250Z,3.62
2019-04-27T12:49:45.077Z,3.45
2019-04-27T12:52:15.827Z,3.93
2019-04-27T12:54:48.667Z,3.45
2019-04-27T12:57:34.050Z,3.35
2019-04-27T13:00:09.206Z,3.40
2019-04-27T13:02:39.115Z,3.17
2019-04-27T13:05:08.101Z,2.97
2019-04-27T13:07:37.303Z,4.10
2019-04-27T13:10:07.603Z,3.27
2019-04-27T13:12:37.030Z,2.67
2019-04-27T13:15:07.762Z,2.80
2019-04-27T13:17:36.744Z,2.75
2019-04-27T13:20:09.098Z,3.27
2019-04-27T13:22:37.888Z,4.35
2019-04-27T13:25:07.388Z,4.10
2019-04-27T13:27:36.751Z,3.52
2019-04-27T13:30:07.540Z,3.00
2019-04-27T13:32:36.719Z,2.93
2019-04-27T13:35:06.532Z,2.72
2019-04-27T13:37:40.346Z,2.77
2019-04-27T13:40:10.034Z,2.52
2019-04-27T13:42:41.600Z,2.57
2019-04-27T13:45:16.477Z,2.70
2019-04-27T13:47:46.646Z,2.33
2019-04-27T13:50:16.881Z,2.77
2019-04-27T13:52:46.707Z,2.45
2019-04-27T13:55:15.955Z,2.27
2019-04-27T13:57:50.487Z,2.12
2019-04-27T14:00:17.824Z,1.50
2019-04-27T14:02:48.343Z,2.30
2019-04-27T14:05:17.167Z,1.37
2019-04-27T14:07:45.971Z,1.43
2019-04-27T14:10:14.965Z,1.40
2019-04-27T14:12:43.530Z,1.57
2019-04-27T14:15:12.307Z,2.17
2019-04-27T14:17:41.456Z,2.15
2019-04-27T14:20:10.436Z,2.62
2019-04-27T14:22:38.938Z,1.90
2019-04-27T14:25:08.792Z,1.75
2019-04-27T14:27:40.527Z,2.87
2019-04-27T14:30:12.118Z,2.20
2019-04-27T14:32:42.438Z,1.92
2019-04-27T14:35:11.410Z,1.90
2019-04-27T14:37:40.529Z,1.97
2019-04-27T14:40:09.610Z,2.00
2019-04-27T14:42:39.741Z,1.63
2019-04-27T14:45:10.068Z,1.77
2019-04-27T14:47:39.948Z,2.35
2019-04-27T14:50:09.146Z,1.98
2019-04-27T14:52:40.934Z,2.33
2019-04-27T14:55:10.223Z,1.82
2019-04-27T14:57:44.376Z,2.33
2019-04-27T15:00:19.251Z,1.87
2019-04-27T15:02:50.093Z,1.60
2019-04-27T15:05:40.719Z,1.60
2019-04-27T15:08:11.664Z,1.80
2019-04-27T15:10:41.474Z,2.40
2019-04-27T15:13:13.913Z,1.70
2019-04-27T15:15:45.328Z,1.82
2019-04-27T15:18:14.551Z,2.05
2019-04-27T15:20:46.630Z,2.00
2019-04-27T15:23:14.678Z,1.67
2019-04-27T15:25:47.029Z,2.00
2019-04-27T15:28:23.356Z,1.82
2019-04-27T15:30:53.867Z,1.85
2019-04-27T15:33:46.657Z,2.67
2019-04-27T15:36:22.839Z,1.97
2019-04-27T15:38:53.886Z,1.45
2019-04-27T15:41:28.770Z,2.35
2019-04-27T15:44:01.308Z,2.60
2019-04-27T15:46:33.894Z,1.93
2019-04-27T15:49:09.809Z,1.37
2019-04-27T15:51:38.219Z,1.57
2019-04-27T15:54:07.314Z,1.92
2019-04-27T15:56:36.998Z,1.98
2019-04-27T15:59:08.659Z,2.58
2019-04-27T16:01:39.513Z,2.10
2019-04-27T16:04:11.235Z,2.07
2019-04-27T16:06:43.017Z,2.87
2019-04-27T16:09:15.969Z,1.93
2019-04-27T16:11:50.114Z,2.90
2019-04-27T16:14:19.215Z,2.73
2019-04-27T16:16:48.783Z,3.00
2019-04-27T16:19:18.384Z,2.20
2019-04-27T16:21:53.769Z,3.15
2019-04-27T16:24:21.255Z,2.80
2019-04-27T16:26:54.375Z,2.37
2019-04-27T16:29:18.772Z,2.80
2019-04-27T16:31:48.406Z,3.40
2019-04-27T16:34:20.767Z,3.00
2019-04-27T16:36:49.980Z,2.25
2019-04-27T16:39:20.388Z,2.20
2019-04-27T16:41:50.297Z,1.90
2019-04-27T16:44:19.591Z,2.20
2019-04-27T16:46:48.900Z,1.37
2019-04-27T16:49:20.469Z,2.45
2019-04-27T16:51:49.796Z,1.77
2019-04-27T16:54:21.306Z,1.70
2019-04-27T16:57:02.000Z,1.70
2019-04-27T16:59:41.738Z,1.87
2019-04-27T17:01:57.047Z,2.30
2019-04-27T17:04:26.013Z,1.98
2019-04-27T17:06:55.064Z,2.10
2019-04-27T17:09:23.954Z,2.40
2019-04-27T17:11:52.534Z,3.27
2019-04-27T17:14:34.932Z,2.95
2019-04-27T17:17:03.819Z,2.98
2019-04-27T17:19:41.279Z,3.10
2019-04-27T17:22:10.418Z,3.92
2019-04-27T17:24:43.793Z,3.20
2019-04-27T17:27:11.172Z,2.60
2019-04-27T17:29:40.388Z,3.45
2019-04-27T17:32:10.888Z,4.05
2019-04-27T17:34:39.801Z,2.60
2019-04-27T17:37:09.812Z,2.58
2019-04-27T17:39:38.986Z,2.15
2019-04-27T17:42:08.715Z,1.30
2019-04-27T17:44:39.197Z,1.77
2019-04-27T17:47:08.843Z,1.87
2019-04-27T17:49:38.165Z,1.70
2019-04-27T17:52:08.890Z,1.50
2019-04-27T17:54:40.792Z,2.10
2019-04-27T17:57:10.399Z,1.67
2019-04-27T17:59:41.054Z,1.75
2019-04-27T18:02:10.619Z,2.15
2019-04-27T18:04:41.008Z,1.87
2019-04-27T18:07:11.218Z,1.80
2019-04-27T18:09:45.961Z,2.10
2019-04-27T18:12:14.630Z,2.00
2019-04-27T18:14:45.083Z,2.40
2019-04-27T18:17:19.619Z,2.23
2019-04-27T18:19:51.530Z,2.20
2019-04-27T18:22:22.284Z,2.22
2019-04-27T18:25:03.416Z,2.00
2019-04-27T18:27:33.621Z,2.45
2019-04-27T18:30:08.410Z,2.70
2019-04-27T18:32:41.670Z,2.70
2019-04-27T18:35:11.937Z,2.80
2019-04-27T18:37:40.677Z,2.27
2019-04-27T18:40:14.041Z,2.90
2019-04-27T18:42:44.787Z,3.33
2019-04-27T18:45:14.423Z,3.22
2019-04-27T18:47:45.370Z,2.73
2019-04-27T18:50:24.480Z,2.90
2019-04-27T18:52:55.318Z,2.95
2019-04-27T18:55:23.916Z,3.70
2019-04-27T18:57:58.966Z,3.08
2019-04-27T19:00:31.025Z,3.42
2019-04-27T19:03:06.722Z,3.02
2019-04-27T19:05:40.232Z,4.67
2019-04-27T19:08:09.548Z,3.95
2019-04-27T19:10:38.931Z,3.90
2019-04-27T19:13:09.529Z,3.90
2019-04-27T19:15:41.290Z,3.90
2019-04-27T19:18:11.007Z,3.40
2019-04-27T19:20:40.437Z,4.33
2019-04-27T19:23:10.979Z,4.62
2019-04-27T19:25:50.111Z,4.03
2019-04-27T19:28:44.127Z,4.25
2019-04-27T19:31:32.707Z,3.73
2019-04-27T19:34:04.483Z,4.30
2019-04-27T19:36:35.716Z,4.15
2019-04-27T19:39:08.729Z,4.57
2019-04-27T19:41:39.259Z,3.90
2019-04-27T19:44:10.184Z,2.43
2019-04-27T19:46:43.983Z,3.42
2019-04-27T19:49:13.823Z,2.67
2019-04-27T19:51:42.890Z,2.95
2019-04-27T19:54:12.224Z,4.00
2019-04-27T19:56:45.930Z,2.47
2019-04-27T19:59:28.135Z,2.52
2019-04-27T20:01:58.644Z,2.70
2019-04-27T20:04:30.746Z,3.00
2019-04-27T20:07:01.047Z,2.20
2019-04-27T20:09:35.018Z,2.13
2019-04-27T20:12:05.206Z,2.08
2019-04-27T20:14:53.703Z,2.03
2019-04-27T20:17:25.322Z,2.13
2019-04-27T20:19:59.533Z,2.37
2019-04-27T20:22:28.694Z,2.25
2019-04-27T20:25:02.169Z,2.63
2019-04-27T20:27:44.937Z,3.67
2019-04-27T20:30:03.206Z,3.40
2019-04-27T20:32:33.718Z,2.00
2019-04-27T20:35:02.824Z,2.87
2019-04-27T20:37:32.550Z,2.83
2019-04-27T20:40:04.034Z,2.87
2019-04-27T20:42:38.293Z,3.30
2019-04-27T20:45:07.245Z,4.15
2019-04-27T20:47:37.242Z,4.47
2019-04-27T20:50:08.898Z,4.40
2019-04-27T20:52:42.612Z,4.15
2019-04-27T20:55:12.837Z,4.25
2019-04-27T20:57:42.653Z,4.23
2019-04-27T21:00:22.251Z,4.62
2019-04-27T21:05:34.108Z,5.85
2019-04-27T21:08:11.722Z,4.87
2019-04-27T21:10:41.392Z,5.07
2019-04-27T21:13:11.224Z,5.13
2019-04-27T21:15:42.925Z,4.60
2019-04-27T21:18:11.639Z,4.50
2019-04-27T21:20:41.225Z,5.42
2019-04-27T21:23:12.135Z,5.08
2019-04-27T21:25:42.680Z,3.75
2019-04-27T21:28:18.534Z,4.12
2019-04-27T21:30:43.732Z,4.42
2019-04-27T21:33:12.404Z,6.57
2019-04-27T21:35:40.978Z,5.20
2019-04-27T21:38:11.534Z,4.00
2019-04-27T21:40:42.274Z,5.15
2019-04-27T21:43:11.847Z,4.80
2019-04-27T21:45:42.031Z,4.30
2019-04-27T21:48:11.164Z,5.05
2019-04-27T21:50:42.730Z,4.42
2019-04-27T21:53:13.672Z,3.67
2019-04-27T21:55:42.654Z,4.07
2019-04-27T21:58:11.617Z,3.53
2019-04-27T22:00:42.829Z,3.70
2019-04-27T22:03:15.063Z,3.02
2019-04-27T22:05:44.053Z,3.13
2019-04-27T22:08:12.622Z,2.50
2019-04-27T22:10:41.502Z,2.43
2019-04-27T22:13:11.158Z,3.65
2019-04-27T22:15:41.662Z,2.50
2019-04-27T22:18:11.260Z,2.60
2019-04-27T22:20:42.451Z,2.52
2019-04-27T22:23:28.814Z,3.25
2019-04-27T22:25:58.192Z,3.77
2019-04-27T22:28:27.515Z,2.75
2019-04-27T22:30:57.405Z,3.10
2019-04-27T22:33:25.979Z,3.20
2019-04-27T22:35:55.398Z,3.20
2019-04-27T22:38:23.958Z,3.60
2019-04-27T22:40:59.852Z,3.00
2019-04-27T22:43:46.931Z,3.98
2019-04-27T22:46:22.812Z,3.50
2019-04-27T22:48:51.749Z,3.33
2019-04-27T22:51:22.930Z,3.77
2019-04-27T22:53:52.189Z,4.20
2019-04-27T22:56:22.786Z,4.30
2019-04-27T22:59:03.155Z,3.33
2019-04-27T23:01:31.818Z,3.37
2019-04-27T23:04:02.419Z,3.33
2019-04-27T23:06:32.786Z,4.30
2019-04-27T23:09:02.644Z,4.20
2019-04-27T23:11:32.737Z,4.35
2019-04-27T23:14:03.406Z,4.65
2019-04-27T23:16:33.826Z,4.00
2019-04-27T23:19:02.714Z,3.90
2019-04-27T23:21:31.392Z,4.85
2019-04-27T23:24:01.704Z,6.12
2019-04-27T23:26:31.239Z,4.25
2019-04-27T23:29:12.946Z,4.20
2019-04-27T23:31:40.688Z,4.63
2019-04-27T23:34:09.366Z,4.12
2019-04-27T23:36:38.146Z,4.80
2019-04-27T23:39:07.450Z,4.62
2019-04-27T23:41:36.343Z,4.12
2019-04-27T23:44:06.050Z,4.45
2019-04-27T23:46:34.940Z,5.10
2019-04-27T23:49:03.825Z,4.93
2019-04-27T23:51:43.262Z,5.17
2019-04-27T23:54:11.866Z,5.27
2019-04-27T23:56:42.043Z,4.77
2019-04-27T23:59:23.771Z,4.00
